Bluff, Mississippi
Current Conditions -  °F | °C
As of 1:15 PM on Friday 28 Nov 2014 (Local Time) from KCRX Reporting Station
Clear Clear  
Wind Chill: 50°   Ceiling: Unl
Heat Index: 50°   Visibility: NA
Dew Point: 25°   Wind: 12mph
Humidity: 37%   Direction: 160°SSE
Pressure: 30.27"   Gusts: NA
Location:  34.6645°N, 89.001°W
Report Text: KCRX 281915Z AUTO 16010KT CLR 10/M04 A3027 RMK AO2
Loading
Personal Weather Stations






























Interactive Weather Map New forecast layout! Learn more

10-Day Weather Forecast

Advertisements
Track Severe Weather on mobile